createdAt,value
2023-04-02T00:01:23.936Z,96084.84
2023-04-02T00:03:50.385Z,96082.94
2023-04-02T00:06:25.961Z,96101.72
2023-04-02T00:08:52.427Z,96100.63
2023-04-02T00:11:25.494Z,96097.94
2023-04-02T00:13:52.016Z,96127.06
2023-04-02T00:16:19.943Z,96097.66
2023-04-02T00:18:46.957Z,96093.66
2023-04-02T00:21:13.350Z,96097.94
2023-04-02T00:23:40.412Z,96119.19
2023-04-02T00:26:19.654Z,96114.81
2023-04-02T00:28:46.200Z,96128.44
2023-04-02T00:31:12.645Z,96130.28
2023-04-02T00:33:39.102Z,96118.66
2023-04-02T00:36:06.018Z,96135.22
2023-04-02T00:38:32.858Z,96143.59
2023-04-02T00:41:00.436Z,96134.75
2023-04-02T00:43:27.603Z,96125.97
2023-04-02T00:45:54.957Z,96127.38
2023-04-02T00:48:24.588Z,96125.69
2023-04-02T00:50:51.031Z,96124.75
2023-04-02T00:53:20.998Z,96117.59
2023-04-02T00:55:47.519Z,96122.97
2023-04-02T00:58:16.877Z,96124.25
2023-04-02T01:00:43.289Z,96120.97
2023-04-02T01:03:16.119Z,96152.34
2023-04-02T01:05:46.107Z,96141.41
2023-04-02T01:08:32.830Z,96174.09
2023-04-02T01:10:59.293Z,96146.16
2023-04-02T01:13:25.705Z,96153.56
2023-04-02T01:16:31.018Z,96120.97
2023-04-02T01:19:01.187Z,96150.19
2023-04-02T01:21:57.014Z,96150.97
2023-04-02T01:24:23.756Z,96140.94
2023-04-02T01:26:50.184Z,96170.75
2023-04-02T01:29:17.590Z,96141.34
2023-04-02T01:31:44.526Z,96161.34
2023-04-02T01:34:12.026Z,96166.72
2023-04-02T01:36:38.417Z,96150.63
2023-04-02T01:39:15.678Z,96125.28
2023-04-02T01:41:47.894Z,96149.88
2023-04-02T01:44:15.756Z,96158.50
2023-04-02T01:46:42.394Z,96168.81
2023-04-02T01:49:12.845Z,96156.44
2023-04-02T01:51:40.847Z,96159.34
2023-04-02T01:54:07.304Z,96159.53
2023-04-02T01:56:33.778Z,96157.72
2023-04-02T01:59:00.240Z,96143.72
2023-04-02T02:01:36.705Z,96161.81
2023-04-02T02:04:03.245Z,96145.72
2023-04-02T02:06:29.685Z,96143.25
2023-04-02T02:09:02.730Z,96166.56
2023-04-02T02:11:29.538Z,96155.63
2023-04-02T02:13:56.908Z,96149.97
2023-04-02T02:16:23.482Z,96137.16
2023-04-02T02:18:51.191Z,96164.25
2023-04-02T02:21:36.508Z,96154.34
2023-04-02T02:24:03.046Z,96176.34
2023-04-02T02:26:29.508Z,96176.28
2023-04-02T02:28:56.136Z,96142.66
2023-04-02T02:31:23.539Z,96176.84
2023-04-02T02:33:50.353Z,96185.53
2023-04-02T02:36:19.757Z,96173.09
2023-04-02T02:38:54.541Z,96169.41
2023-04-02T02:41:24.385Z,96176.28
2023-04-02T02:44:01.621Z,96204.84
2023-04-02T02:46:28.381Z,96168.22
2023-04-02T02:48:55.065Z,96199.38
2023-04-02T02:51:23.807Z,96212.56
2023-04-02T02:53:50.972Z,96213.53
2023-04-02T02:56:17.439Z,96199.34
2023-04-02T02:58:43.799Z,96194.03
2023-04-02T03:01:10.432Z,96225.09
2023-04-02T03:03:37.012Z,96213.53
2023-04-02T03:06:04.489Z,96197.00
2023-04-02T03:08:36.995Z,96187.13
2023-04-02T03:11:05.377Z,96198.91
2023-04-02T03:13:32.820Z,96204.25
2023-04-02T03:16:18.952Z,96198.38
2023-04-02T03:18:59.596Z,96196.72
2023-04-02T03:21:36.953Z,96200.47
2023-04-02T03:24:03.368Z,96212.88
2023-04-02T03:26:29.820Z,96213.94
2023-04-02T03:29:00.764Z,96223.03
2023-04-02T03:31:28.184Z,96237.44
2023-04-02T03:33:55.738Z,96212.00
2023-04-02T03:36:32.183Z,96249.19
2023-04-02T03:39:10.752Z,96226.78
2023-04-02T03:41:51.167Z,96239.09
2023-04-02T03:44:21.987Z,96239.91
2023-04-02T03:46:52.842Z,96247.41
2023-04-02T03:49:20.334Z,96263.00
2023-04-02T03:51:52.450Z,96245.88
2023-04-02T03:54:18.896Z,96265.09
2023-04-02T03:56:45.497Z,96252.56
2023-04-02T03:59:15.028Z,96246.94
2023-04-02T04:01:55.292Z,96261.03
2023-04-02T04:04:21.984Z,96249.59
2023-04-02T04:06:49.455Z,96250.41
2023-04-02T04:09:27.137Z,96261.97
2023-04-02T04:11:55.027Z,96268.63
2023-04-02T04:14:28.146Z,96273.13
2023-04-02T04:16:58.638Z,96263.50
2023-04-02T04:19:28.090Z,96282.84
2023-04-02T04:21:54.501Z,96285.50
2023-04-02T04:24:22.824Z,96282.00
2023-04-02T04:26:56.911Z,96313.56
2023-04-02T04:29:29.576Z,96287.25
2023-04-02T04:31:56.247Z,96307.81
2023-04-02T04:34:37.556Z,96272.97
2023-04-02T04:37:04.113Z,96301.38
2023-04-02T04:39:33.751Z,96284.84
2023-04-02T04:42:00.683Z,96304.56
2023-04-02T04:44:36.258Z,96316.31
2023-04-02T04:47:03.790Z,96313.63
2023-04-02T04:49:38.941Z,96325.38
2023-04-02T04:52:16.841Z,96326.59
2023-04-02T04:54:43.330Z,96324.25
2023-04-02T04:57:19.498Z,96341.75
2023-04-02T04:59:47.921Z,96333.88
2023-04-02T05:02:16.563Z,96325.72
2023-04-02T05:04:43.321Z,96349.56
2023-04-02T05:07:12.872Z,96334.91
2023-04-02T05:09:42.941Z,96352.00
2023-04-02T05:12:18.608Z,96339.47
2023-04-02T05:14:52.272Z,96338.63
2023-04-02T05:17:23.947Z,96342.41
2023-04-02T05:19:59.092Z,96336.28
2023-04-02T05:22:28.167Z,96350.19
2023-04-02T05:24:57.439Z,96364.56
2023-04-02T05:27:26.553Z,96337.34
2023-04-02T05:29:55.881Z,96376.69
2023-04-02T05:32:24.521Z,96369.38
2023-04-02T05:34:51.618Z,96379.22
2023-04-02T05:37:19.141Z,96376.47
2023-04-02T05:39:45.837Z,96382.81
2023-04-02T05:42:20.289Z,96375.56
2023-04-02T05:45:09.943Z,96367.84
2023-04-02T05:47:36.479Z,96367.56
2023-04-02T05:50:08.991Z,96379.84
2023-04-02T05:52:40.106Z,96370.47
2023-04-02T05:55:12.688Z,96393.22
2023-04-02T05:57:44.829Z,96369.97
2023-04-02T06:00:18.245Z,96373.44
2023-04-02T06:02:45.117Z,96392.91
2023-04-02T06:05:11.811Z,96397.03
2023-04-02T06:07:42.946Z,96394.19
2023-04-02T06:10:18.657Z,96390.41
2023-04-02T06:12:58.034Z,96408.78
2023-04-02T06:15:24.560Z,96396.81
2023-04-02T06:17:51.790Z,96437.53
2023-04-02T06:20:18.886Z,96404.84
2023-04-02T06:22:45.595Z,96394.59
2023-04-02T06:25:15.549Z,96394.88
2023-04-02T06:27:42.063Z,96406.06
2023-04-02T06:30:10.248Z,96409.31
2023-04-02T06:32:36.709Z,96404.81
2023-04-02T06:35:03.238Z,96413.56
2023-04-02T06:37:36.520Z,96438.25
2023-04-02T06:40:03.730Z,96420.13
2023-04-02T06:42:39.446Z,96458.06
2023-04-02T06:45:06.130Z,96441.69
2023-04-02T06:47:36.364Z,96453.97
2023-04-02T06:50:02.872Z,96462.03
2023-04-02T06:52:31.601Z,96453.97
2023-04-02T06:54:58.872Z,96456.34
2023-04-02T06:57:25.399Z,96456.00
2023-04-02T06:59:51.923Z,96459.47
2023-04-02T07:02:22.479Z,96468.03
2023-04-02T07:04:48.919Z,96474.41
2023-04-02T07:07:15.415Z,96476.59
2023-04-02T07:09:41.802Z,96457.66
2023-04-02T07:12:12.187Z,96482.56
2023-04-02T07:14:38.643Z,96478.00
2023-04-02T07:17:05.110Z,96486.84
2023-04-02T07:19:31.648Z,96483.47
2023-04-02T07:21:58.082Z,96487.47
2023-04-02T07:24:24.644Z,96485.06
2023-04-02T07:26:51.049Z,96502.50
2023-04-02T07:29:17.448Z,96493.41
2023-04-02T07:31:44.003Z,96488.22
2023-04-02T07:34:10.470Z,96510.94
2023-04-02T07:36:37.505Z,96500.19
2023-04-02T07:39:04.072Z,96512.03
2023-04-02T07:41:30.498Z,96512.81
2023-04-02T07:43:57.064Z,96511.41
2023-04-02T07:46:23.584Z,96490.25
2023-04-02T07:48:50.162Z,96518.91
2023-04-02T07:51:17.694Z,96508.91
2023-04-02T07:53:44.126Z,96528.84
2023-04-02T07:56:13.659Z,96537.13
2023-04-02T07:58:40.116Z,96515.00
2023-04-02T08:01:11.988Z,96512.84
2023-04-02T08:03:38.587Z,96512.41
2023-04-02T08:06:05.204Z,96539.16
2023-04-02T08:08:31.614Z,96539.72
2023-04-02T08:10:58.090Z,96544.50
2023-04-02T08:13:24.566Z,96562.06
2023-04-02T08:15:51.044Z,96543.22
2023-04-02T08:18:17.468Z,96554.66
2023-04-02T08:20:43.884Z,96536.34
2023-04-02T08:23:13.958Z,96560.97
2023-04-02T08:25:40.381Z,96561.16
2023-04-02T08:28:06.859Z,96573.94
2023-04-02T08:30:34.213Z,96576.97
2023-04-02T08:33:01.025Z,96566.38
2023-04-02T08:35:27.808Z,96562.41
2023-04-02T08:37:54.270Z,96580.44
2023-04-02T08:40:22.775Z,96582.91
2023-04-02T08:43:03.343Z,96573.72
2023-04-02T08:45:47.126Z,96576.81
2023-04-02T08:48:13.605Z,96568.56
2023-04-02T08:50:43.376Z,96576.56
2023-04-02T08:53:12.525Z,96568.28
2023-04-02T08:55:40.921Z,96604.88
2023-04-02T08:58:29.326Z,96592.13
2023-04-02T09:00:55.964Z,96609.47
2023-04-02T09:03:29.676Z,96581.63
2023-04-02T09:05:56.152Z,96585.81
2023-04-02T09:08:23.173Z,96598.91
2023-04-02T09:11:19.224Z,96591.56
2023-04-02T09:13:46.448Z,96603.59
2023-04-02T09:16:13.897Z,96605.31
2023-04-02T09:18:40.468Z,96621.00
2023-04-02T09:21:21.939Z,96608.63
2023-04-02T09:23:48.645Z,96613.09
2023-04-02T09:26:25.316Z,96620.09
2023-04-02T09:28:51.883Z,96627.06
2023-04-02T09:31:26.912Z,96648.38
2023-04-02T09:33:53.431Z,96630.44
2023-04-02T09:36:40.146Z,96640.59
2023-04-02T09:39:15.202Z,96629.28
2023-04-02T09:41:41.759Z,96638.88
2023-04-02T09:44:21.587Z,96631.84
2023-04-02T09:46:58.456Z,96629.56
2023-04-02T09:49:28.589Z,96638.88
2023-04-02T09:52:08.536Z,96650.31
2023-04-02T09:54:35.106Z,96638.66
2023-04-02T09:57:02.435Z,96653.78
2023-04-02T09:59:28.950Z,96651.94
2023-04-02T10:01:55.808Z,96670.50
2023-04-02T10:04:41.804Z,96649.91
2023-04-02T10:07:11.181Z,96661.72
2023-04-02T10:09:37.693Z,96651.91
2023-04-02T10:12:08.331Z,96660.78
2023-04-02T10:14:38.817Z,96651.00
2023-04-02T10:17:07.894Z,96650.88
2023-04-02T10:19:34.975Z,96660.69
2023-04-02T10:22:03.440Z,96656.72
2023-04-02T10:24:29.943Z,96642.25
2023-04-02T10:26:59.476Z,96670.25
2023-04-02T10:29:44.160Z,96670.75
2023-04-02T10:32:12.108Z,96664.03
2023-04-02T10:34:43.537Z,96673.44
2023-04-02T10:37:36.163Z,96675.84
2023-04-02T10:40:21.286Z,96702.81
2023-04-02T10:42:59.987Z,96683.09
2023-04-02T10:45:33.971Z,96698.31
2023-04-02T10:48:03.155Z,96677.75
2023-04-02T10:50:39.826Z,96706.75
2023-04-02T10:53:10.108Z,96698.63
2023-04-02T10:55:37.352Z,96704.59
2023-04-02T10:58:05.897Z,96698.31
2023-04-02T11:00:33.790Z,96702.06
2023-04-02T11:03:21.091Z,96674.94
2023-04-02T11:05:48.267Z,96702.31
2023-04-02T11:08:20.772Z,96712.03
2023-04-02T11:10:55.480Z,96702.22
2023-04-02T11:13:28.882Z,96710.69
2023-04-02T11:15:55.357Z,96713.75
2023-04-02T11:18:22.758Z,96734.91
2023-04-02T11:20:59.409Z,96726.97
2023-04-02T11:23:29.907Z,96726.41
2023-04-02T11:26:15.378Z,96727.69
2023-04-02T11:28:41.844Z,96740.06
2023-04-02T11:31:08.425Z,96718.97
2023-04-02T11:33:39.246Z,96730.09
2023-04-02T11:36:25.011Z,96738.97
2023-04-02T11:38:52.448Z,96760.72
2023-04-02T11:41:57.589Z,96749.97
2023-04-02T11:44:24.245Z,96779.56
2023-04-02T11:46:50.660Z,96748.31
2023-04-02T11:49:33.133Z,96753.69
2023-04-02T11:52:10.885Z,96795.84
2023-04-02T11:54:38.515Z,96756.13
2023-04-02T11:57:19.635Z,96764.16
2023-04-02T12:00:05.827Z,96768.78
2023-04-02T12:02:37.192Z,96767.34
2023-04-02T12:05:03.802Z,96761.50
2023-04-02T12:07:30.333Z,96755.84
2023-04-02T12:09:57.673Z,96768.03
2023-04-02T12:12:24.065Z,96799.38
2023-04-02T12:14:53.985Z,96783.84
2023-04-02T12:17:23.461Z,96791.22
2023-04-02T12:19:50.504Z,96794.91
2023-04-02T12:22:18.825Z,96790.84
2023-04-02T12:24:45.824Z,96802.47
2023-04-02T12:27:19.588Z,96769.97
2023-04-02T12:29:46.042Z,96823.88
2023-04-02T12:32:32.775Z,96781.44
2023-04-02T12:35:02.988Z,96825.34
2023-04-02T12:37:29.559Z,96801.09
2023-04-02T12:39:59.780Z,96813.88
2023-04-02T12:42:30.727Z,96829.00
2023-04-02T12:44:57.166Z,96820.50
2023-04-02T12:47:23.784Z,96793.31
2023-04-02T12:49:50.296Z,96843.50
2023-04-02T12:52:18.095Z,96851.72
2023-04-02T12:54:45.593Z,96828.03
2023-04-02T12:57:22.257Z,96836.94
2023-04-02T12:59:49.003Z,96852.59
2023-04-02T13:02:21.376Z,96838.81
2023-04-02T13:04:51.336Z,96869.72
2023-04-02T13:07:18.178Z,96829.16
2023-04-02T13:09:45.743Z,96855.84
2023-04-02T13:12:31.321Z,96859.00
2023-04-02T13:14:58.061Z,96855.78
2023-04-02T13:17:36.608Z,96853.19
2023-04-02T13:20:21.660Z,96873.03
2023-04-02T13:22:48.166Z,96854.41
2023-04-02T13:25:14.731Z,96859.94
2023-04-02T13:27:41.388Z,96869.53
2023-04-02T13:30:09.026Z,96884.19
2023-04-02T13:32:35.493Z,96883.13
2023-04-02T13:35:02.014Z,96868.03
2023-04-02T13:37:28.601Z,96881.69
2023-04-02T13:39:55.181Z,96900.41
2023-04-02T13:42:21.708Z,96887.38
2023-04-02T13:44:48.285Z,96894.69
2023-04-02T13:47:14.726Z,96906.28
2023-04-02T13:49:41.120Z,96889.97
2023-04-02T13:52:09.906Z,96886.03
2023-04-02T13:54:55.488Z,96888.31
2023-04-02T13:57:22.068Z,96890.66
2023-04-02T13:59:48.554Z,96901.34
2023-04-02T14:02:18.787Z,96898.34
2023-04-02T14:04:50.523Z,96918.25
2023-04-02T14:07:20.162Z,96914.69
2023-04-02T14:09:49.645Z,96924.59
2023-04-02T14:12:34.953Z,96914.56
2023-04-02T14:15:17.069Z,96941.44
2023-04-02T14:17:53.428Z,96917.06
2023-04-02T14:20:38.975Z,96927.38
2023-04-02T14:23:18.348Z,96933.28
2023-04-02T14:25:50.690Z,96917.72
2023-04-02T14:28:20.220Z,96931.13
2023-04-02T14:30:52.503Z,96938.09
2023-04-02T14:33:40.684Z,96929.56
2023-04-02T14:36:27.824Z,96967.97
2023-04-02T14:39:03.546Z,96943.84
2023-04-02T14:41:38.987Z,96949.47
2023-04-02T14:44:05.743Z,96965.28
2023-04-02T14:46:32.788Z,96938.47
2023-04-02T14:49:01.624Z,96976.03
2023-04-02T14:51:35.693Z,96955.66
2023-04-02T14:54:21.057Z,96976.34
2023-04-02T14:56:49.218Z,96961.88
2023-04-02T14:59:34.915Z,96967.75
2023-04-02T15:02:04.644Z,96963.50
2023-04-02T15:04:32.898Z,96988.94
2023-04-02T15:07:01.892Z,96966.16
2023-04-02T15:09:29.355Z,96964.81
2023-04-02T15:11:57.226Z,96998.31
2023-04-02T15:14:24.161Z,97010.59
2023-04-02T15:16:50.564Z,96984.91
2023-04-02T15:19:17.328Z,96996.41
2023-04-02T15:21:57.115Z,97032.28
2023-04-02T15:24:26.122Z,97042.50
2023-04-02T15:27:07.194Z,97027.75
2023-04-02T15:29:54.849Z,97031.19
2023-04-02T15:32:33.654Z,97025.06
2023-04-02T15:35:09.456Z,97031.75
2023-04-02T15:37:39.630Z,97027.66
2023-04-02T15:40:24.847Z,97032.84
2023-04-02T15:43:11.593Z,97021.03
2023-04-02T15:45:44.343Z,97026.63
2023-04-02T15:48:28.992Z,97060.66
2023-04-02T15:51:14.141Z,97048.34
2023-04-02T15:53:46.839Z,97042.19
2023-04-02T15:56:16.286Z,97043.81
2023-04-02T15:58:51.481Z,97039.81
2023-04-02T16:01:22.726Z,97070.88
2023-04-02T16:04:01.531Z,97057.50
2023-04-02T16:06:38.029Z,97061.81
2023-04-02T16:09:33.957Z,97071.69
2023-04-02T16:12:11.789Z,97064.19
2023-04-02T16:14:38.410Z,97077.06
2023-04-02T16:17:11.185Z,97081.91
2023-04-02T16:19:45.290Z,97073.84
2023-04-02T16:22:12.917Z,97081.38
2023-04-02T16:24:39.443Z,97081.88
2023-04-02T16:27:24.824Z,97104.31
2023-04-02T16:29:55.166Z,97106.22
2023-04-02T16:32:25.052Z,97116.91
2023-04-02T16:35:32.584Z,97088.16
2023-04-02T16:37:53.983Z,97101.56
2023-04-02T16:40:35.672Z,97117.59
2023-04-02T16:43:08.301Z,97169.50
2023-04-02T16:45:53.416Z,97132.28
2023-04-02T16:48:19.925Z,97137.28
2023-04-02T16:51:05.281Z,97116.34
2023-04-02T16:53:47.837Z,97148.63
2023-04-02T16:56:21.093Z,97149.34
2023-04-02T16:58:59.957Z,97164.91
2023-04-02T17:01:29.232Z,97176.94
2023-04-02T17:06:42.762Z,97167.03
2023-04-02T17:09:09.340Z,97158.66
2023-04-02T17:11:41.720Z,97172.78
2023-04-02T17:14:13.131Z,97174.19
2023-04-02T17:16:39.570Z,97175.56
2023-04-02T17:19:08.997Z,97177.94
2023-04-02T17:21:35.514Z,97193.69
2023-04-02T17:24:08.093Z,97206.22
2023-04-02T17:26:34.702Z,97206.13
2023-04-02T17:29:01.745Z,97210.19
2023-04-02T17:31:28.681Z,97211.13
2023-04-02T17:33:55.205Z,97215.16
2023-04-02T17:36:30.932Z,97228.75
2023-04-02T17:39:00.474Z,97222.56
2023-04-02T17:41:47.165Z,97230.06
2023-04-02T17:44:46.125Z,97235.91
2023-04-02T17:47:15.393Z,97242.03
2023-04-02T17:49:52.868Z,97254.56
2023-04-02T17:52:29.958Z,97250.94
2023-04-02T17:55:02.570Z,97255.66
2023-04-02T17:57:55.207Z,97245.47
2023-04-02T18:00:21.738Z,97281.31
2023-04-02T18:03:00.265Z,97285.78
2023-04-02T18:05:53.350Z,97286.59
2023-04-02T18:08:35.172Z,97267.59
2023-04-02T18:11:14.219Z,97282.38
2023-04-02T18:13:49.390Z,97293.03
2023-04-02T18:16:42.051Z,97293.78
2023-04-02T18:19:26.905Z,97283.34
2023-04-02T18:21:56.047Z,97308.03
2023-04-02T18:24:41.272Z,97349.72
2023-04-02T18:27:26.730Z,97306.97
2023-04-02T18:30:02.537Z,97345.56
2023-04-02T18:32:47.125Z,97350.25
2023-04-02T18:35:15.448Z,97325.59
2023-04-02T18:37:51.147Z,97315.91
2023-04-02T18:40:50.183Z,97324.97
2023-04-02T18:43:16.628Z,97342.41
2023-04-02T18:45:49.396Z,97361.56
2023-04-02T18:48:26.858Z,97340.03
2023-04-02T18:50:53.389Z,97347.25
2023-04-02T18:53:21.853Z,97371.31
2023-04-02T18:55:49.437Z,97358.91
2023-04-02T18:58:17.846Z,97344.91
2023-04-02T19:00:44.347Z,97387.69
2023-04-02T19:03:10.835Z,97396.50
2023-04-02T19:05:56.461Z,97363.94
2023-04-02T19:08:39.485Z,97382.97
2023-04-02T19:11:32.541Z,97378.38
2023-04-02T19:13:59.777Z,97387.44
2023-04-02T19:16:45.164Z,97402.59
2023-04-02T19:19:17.129Z,97418.75
2023-04-02T19:21:56.014Z,97409.22
2023-04-02T19:24:26.173Z,97424.84
2023-04-02T19:26:59.730Z,97425.09
2023-04-02T19:29:30.691Z,97425.69
2023-04-02T19:32:15.700Z,97438.69
2023-04-02T19:34:43.141Z,97428.47
2023-04-02T19:37:16.895Z,97402.63
2023-04-02T19:40:02.262Z,97407.69
2023-04-02T19:42:30.541Z,97437.38
2023-04-02T19:44:56.964Z,97448.84
2023-04-02T19:47:23.401Z,97413.50
2023-04-02T19:49:50.044Z,97442.03
2023-04-02T19:52:16.582Z,97456.06
2023-04-02T19:54:42.935Z,97433.59
2023-04-02T19:57:12.127Z,97450.66
2023-04-02T19:59:38.674Z,97463.13
2023-04-02T20:02:05.371Z,97421.88
2023-04-02T20:04:31.971Z,97439.63
2023-04-02T20:06:58.499Z,97433.94
2023-04-02T20:09:24.943Z,97454.00
2023-04-02T20:11:51.541Z,97439.22
2023-04-02T20:14:17.982Z,97455.50
2023-04-02T20:16:45.776Z,97451.53
2023-04-02T20:19:12.591Z,97443.53
2023-04-02T20:21:39.048Z,97453.53
2023-04-02T20:24:06.128Z,97486.06
2023-04-02T20:26:32.765Z,97450.88
2023-04-02T20:28:59.236Z,97464.06
2023-04-02T20:31:25.801Z,97454.56
2023-04-02T20:33:58.687Z,97481.47
2023-04-02T20:36:25.366Z,97479.13
2023-04-02T20:38:51.897Z,97469.03
2023-04-02T20:41:18.384Z,97490.34
2023-04-02T20:43:44.891Z,97519.59
2023-04-02T20:46:12.366Z,97501.63
2023-04-02T20:48:39.250Z,97488.66
2023-04-02T20:51:06.040Z,97513.66
2023-04-02T20:53:32.993Z,97502.53
2023-04-02T20:56:06.065Z,97521.13
2023-04-02T20:58:32.777Z,97513.31
2023-04-02T21:01:06.588Z,97534.91
2023-04-02T21:03:33.107Z,97528.88
2023-04-02T21:05:59.667Z,97536.75
2023-04-02T21:08:26.260Z,97547.16
2023-04-02T21:10:52.674Z,97528.28
2023-04-02T21:13:19.245Z,97548.22
2023-04-02T21:15:45.824Z,97547.75
2023-04-02T21:18:12.353Z,97548.69
2023-04-02T21:20:39.016Z,97558.78
2023-04-02T21:23:05.547Z,97542.44
2023-04-02T21:25:31.944Z,97548.56
2023-04-02T21:27:58.322Z,97553.44
2023-04-02T21:30:24.755Z,97555.16
2023-04-02T21:32:51.244Z,97572.44
2023-04-02T21:35:17.738Z,97552.06
2023-04-02T21:37:45.397Z,97560.03
2023-04-02T21:40:11.868Z,97565.84
2023-04-02T21:42:38.250Z,97551.22
2023-04-02T21:45:04.931Z,97565.59
2023-04-02T21:47:31.449Z,97544.06
2023-04-02T21:49:57.934Z,97570.81
2023-04-02T21:52:24.497Z,97588.41
2023-04-02T21:54:50.969Z,97554.72
2023-04-02T21:57:19.052Z,97563.63
2023-04-02T21:59:45.748Z,97564.19
2023-04-02T22:02:12.234Z,97569.88
2023-04-02T22:04:38.643Z,97556.78
2023-04-02T22:07:05.098Z,97570.56
2023-04-02T22:09:31.532Z,97577.41
2023-04-02T22:11:58.100Z,97570.69
2023-04-02T22:14:24.612Z,97578.66
2023-04-02T22:16:51.122Z,97587.16
2023-04-02T22:19:17.694Z,97584.59
2023-04-02T22:21:44.341Z,97594.53
2023-04-02T22:24:14.346Z,97588.41
2023-04-02T22:26:40.927Z,97580.06
2023-04-02T22:29:07.584Z,97578.78
2023-04-02T22:31:34.158Z,97572.06
2023-04-02T22:34:00.696Z,97591.16
2023-04-02T22:36:27.329Z,97584.44
2023-04-02T22:38:53.840Z,97598.13
2023-04-02T22:41:23.320Z,97553.38
2023-04-02T22:43:49.878Z,97589.06
2023-04-02T22:46:17.081Z,97595.53
2023-04-02T22:48:43.697Z,97588.59
2023-04-02T22:51:10.575Z,97587.00
2023-04-02T22:53:37.055Z,97572.97
2023-04-02T22:56:10.837Z,97594.38
2023-04-02T22:58:37.420Z,97584.78
2023-04-02T23:01:07.583Z,97568.91
2023-04-02T23:03:34.156Z,97590.91
2023-04-02T23:06:00.969Z,97577.34
2023-04-02T23:08:27.449Z,97570.31
2023-04-02T23:10:59.991Z,97567.19
2023-04-02T23:13:26.384Z,97565.69
2023-04-02T23:15:52.856Z,97602.38
2023-04-02T23:18:19.386Z,97585.59
2023-04-02T23:20:45.874Z,97589.41
2023-04-02T23:23:12.342Z,97594.75
2023-04-02T23:25:38.889Z,97567.06
2023-04-02T23:28:05.305Z,97607.84
2023-04-02T23:30:31.691Z,97610.97
2023-04-02T23:32:58.134Z,97582.03
2023-04-02T23:35:24.723Z,97595.09
2023-04-02T23:37:51.186Z,97589.91
2023-04-02T23:40:17.813Z,97595.44
2023-04-02T23:42:44.205Z,97595.94
2023-04-02T23:45:10.750Z,97595.44
2023-04-02T23:47:37.389Z,97593.84
2023-04-02T23:50:04.007Z,97591.88
2023-04-02T23:52:30.520Z,97610.50
2023-04-02T23:54:57.066Z,97593.22
2023-04-02T23:57:23.505Z,97587.00
2023-04-02T23:59:50.002Z,97606.81
